createdAt,value
2018-12-18T00:02:00.588Z,15.77
2018-12-18T00:04:28.719Z,14.83
2018-12-18T00:06:56.840Z,16.43
2018-12-18T00:09:24.917Z,16.40
2018-12-18T00:11:59.155Z,17.50
2018-12-18T00:14:23.516Z,16.80
2018-12-18T00:16:51.627Z,16.03
2018-12-18T00:19:19.771Z,17.07
2018-12-18T00:21:47.911Z,15.77
2018-12-18T00:24:16.079Z,16.47
2018-12-18T00:26:44.164Z,17.70
2018-12-18T00:29:12.258Z,16.47
2018-12-18T00:31:40.428Z,17.43
2018-12-18T00:34:08.610Z,16.97
2018-12-18T00:36:36.790Z,16.37
2018-12-18T00:39:07.993Z,17.00
2018-12-18T00:41:36.113Z,16.03
2018-12-18T00:44:04.269Z,17.20
2018-12-18T00:46:32.402Z,15.23
2018-12-18T00:49:00.532Z,17.03
2018-12-18T00:51:28.717Z,17.40
2018-12-18T00:53:56.811Z,16.80
2018-12-18T00:56:25.013Z,16.03
2018-12-18T00:58:53.196Z,17.47
2018-12-18T01:01:21.277Z,17.13
2018-12-18T01:03:52.737Z,17.47
2018-12-18T01:06:19.684Z,17.13
2018-12-18T01:08:47.832Z,16.97
2018-12-18T01:11:15.907Z,16.83
2018-12-18T01:13:44.003Z,17.63
2018-12-18T01:16:12.384Z,18.57
2018-12-18T01:18:40.499Z,18.83
2018-12-18T01:21:08.626Z,17.20
2018-12-18T01:23:36.701Z,16.97
2018-12-18T01:26:04.809Z,16.27
2018-12-18T01:28:32.919Z,17.53
2018-12-18T01:31:01.046Z,16.93
2018-12-18T01:33:29.138Z,16.43
2018-12-18T01:35:57.311Z,17.27
2018-12-18T01:38:25.470Z,15.97
2018-12-18T01:40:53.659Z,16.97
2018-12-18T01:43:21.784Z,16.43
2018-12-18T01:45:49.898Z,16.13
2018-12-18T01:48:18.071Z,16.03
2018-12-18T01:50:46.197Z,17.57
2018-12-18T01:53:14.280Z,16.27
2018-12-18T01:55:42.419Z,17.27
2018-12-18T01:58:10.564Z,17.23
2018-12-18T02:00:38.682Z,15.97
2018-12-18T02:03:06.829Z,16.50
2018-12-18T02:05:34.899Z,17.00
2018-12-18T02:08:03.023Z,16.83
2018-12-18T02:10:31.173Z,16.37
2018-12-18T02:12:59.604Z,16.57
2018-12-18T02:15:27.701Z,17.50
2018-12-18T02:17:55.794Z,18.33
2018-12-18T02:20:23.923Z,17.27
2018-12-18T02:22:52.020Z,17.23
2018-12-18T02:25:20.165Z,17.83
2018-12-18T02:27:48.296Z,16.57
2018-12-18T02:30:16.406Z,16.17
2018-12-18T02:32:44.518Z,18.27
2018-12-18T02:35:12.692Z,17.70
2018-12-18T02:37:40.872Z,17.83
2018-12-18T02:40:09.024Z,17.40
2018-12-18T02:42:37.216Z,18.27
2018-12-18T02:45:05.740Z,16.87
2018-12-18T02:47:33.876Z,16.33
2018-12-18T02:50:02.115Z,17.20
2018-12-18T02:52:30.289Z,17.63
2018-12-18T02:54:58.408Z,16.23
2018-12-18T02:57:26.546Z,17.23
2018-12-18T02:59:54.668Z,16.30
2018-12-18T03:02:22.790Z,16.10
2018-12-18T03:04:50.998Z,16.43
2018-12-18T03:07:19.089Z,18.10
2018-12-18T03:09:47.224Z,17.53
2018-12-18T03:12:15.330Z,18.07
2018-12-18T03:14:43.431Z,19.30
2018-12-18T03:17:11.595Z,18.43
2018-12-18T03:19:39.738Z,18.07
2018-12-18T03:22:07.918Z,19.63
2018-12-18T03:24:36.040Z,18.95
2018-12-18T03:27:04.196Z,20.73
2018-12-18T03:29:32.321Z,19.43
2018-12-18T03:32:06.221Z,20.27
2018-12-18T03:34:34.312Z,19.87
2018-12-18T03:37:02.465Z,18.50
2018-12-18T03:39:30.626Z,20.12
2018-12-18T03:41:58.748Z,20.85
2018-12-18T03:44:26.870Z,19.50
2018-12-18T03:46:54.985Z,19.87
2018-12-18T03:49:23.257Z,21.00
2018-12-18T03:51:51.393Z,19.23
2018-12-18T03:54:19.610Z,19.67
2018-12-18T03:56:47.711Z,18.83
2018-12-18T03:59:15.905Z,19.73
2018-12-18T04:01:44.068Z,19.37
2018-12-18T04:04:12.272Z,19.27
2018-12-18T04:06:40.407Z,21.03
2018-12-18T04:09:08.593Z,19.50
2018-12-18T04:11:41.004Z,19.60
2018-12-18T04:14:09.276Z,19.10
2018-12-18T04:16:37.447Z,20.93
2018-12-18T04:19:05.593Z,20.30
2018-12-18T04:21:33.761Z,21.13
2018-12-18T04:24:01.938Z,18.90
2018-12-18T04:26:30.063Z,21.30
2018-12-18T04:28:58.194Z,21.27
2018-12-18T04:31:26.360Z,20.47
2018-12-18T04:33:54.498Z,18.33
2018-12-18T04:36:22.635Z,19.33
2018-12-18T04:38:50.811Z,21.73
2018-12-18T04:41:18.937Z,19.73
2018-12-18T04:43:47.067Z,19.63
2018-12-18T04:46:15.238Z,18.90
2018-12-18T04:48:43.377Z,19.30
2018-12-18T04:51:11.467Z,20.13
2018-12-18T04:53:39.699Z,18.43
2018-12-18T04:56:07.856Z,20.80
2018-12-18T04:58:36.191Z,19.65
2018-12-18T05:01:04.443Z,17.77
2018-12-18T05:03:32.567Z,18.43
2018-12-18T05:06:00.752Z,19.60
2018-12-18T05:08:28.955Z,21.03
2018-12-18T05:10:57.094Z,19.77
2018-12-18T05:13:25.247Z,20.73
2018-12-18T05:15:53.449Z,21.95
2018-12-18T05:18:21.587Z,20.55
2018-12-18T05:20:49.717Z,20.82
2018-12-18T05:23:17.824Z,20.95
2018-12-18T05:25:45.970Z,20.72
2018-12-18T05:28:14.156Z,22.30
2018-12-18T05:30:43.220Z,20.85
2018-12-18T05:33:11.478Z,19.77
2018-12-18T05:35:39.693Z,22.48
2018-12-18T05:38:07.903Z,19.50
2018-12-18T05:40:36.056Z,22.10
2018-12-18T05:43:04.220Z,21.00
2018-12-18T05:45:32.359Z,21.12
2018-12-18T05:48:00.569Z,21.77
2018-12-18T05:50:28.726Z,23.42
2018-12-18T05:52:56.912Z,19.87
2018-12-18T05:55:25.075Z,21.95
2018-12-18T05:57:53.252Z,21.20
2018-12-18T06:00:21.354Z,24.07
2018-12-18T06:02:49.519Z,24.37
2018-12-18T06:05:17.674Z,20.37
2018-12-18T06:07:45.845Z,22.07
2018-12-18T06:10:14.046Z,18.87
2018-12-18T06:12:42.235Z,21.55
2018-12-18T06:15:10.712Z,21.48
2018-12-18T06:17:38.993Z,23.62
2018-12-18T06:20:07.204Z,22.02
2018-12-18T06:22:35.422Z,23.92
2018-12-18T06:25:03.954Z,23.10
2018-12-18T06:27:32.182Z,23.80
2018-12-18T06:30:00.532Z,21.95
2018-12-18T06:32:28.687Z,19.82
2018-12-18T06:34:56.808Z,23.57
2018-12-18T06:37:25.054Z,19.20
2018-12-18T06:39:53.208Z,23.92
2018-12-18T06:42:21.334Z,23.05
2018-12-18T06:44:49.454Z,24.90
2018-12-18T06:47:17.668Z,25.52
2018-12-18T06:49:45.792Z,26.95
2018-12-18T06:52:13.968Z,28.73
2018-12-18T06:54:42.131Z,25.30
2018-12-18T06:57:10.248Z,27.85
2018-12-18T06:59:38.384Z,27.98
2018-12-18T07:02:06.581Z,29.32
2018-12-18T07:04:34.748Z,27.48
2018-12-18T07:07:02.887Z,29.37
2018-12-18T07:09:31.897Z,29.23
2018-12-18T07:12:00.009Z,28.10
2018-12-18T07:14:28.157Z,32.30
2018-12-18T07:16:56.328Z,29.25
2018-12-18T07:19:24.476Z,29.92
2018-12-18T07:21:52.678Z,27.27
2018-12-18T07:24:20.857Z,32.33
2018-12-18T07:26:49.170Z,31.75
2018-12-18T07:29:17.414Z,31.07
2018-12-18T07:31:45.528Z,29.60
2018-12-18T07:34:13.694Z,29.40
2018-12-18T07:36:41.912Z,29.90
2018-12-18T07:39:10.032Z,28.57
2018-12-18T07:41:38.162Z,28.73
2018-12-18T07:44:06.293Z,27.13
2018-12-18T07:46:34.434Z,25.80
2018-12-18T07:49:02.594Z,26.52
2018-12-18T07:51:30.720Z,25.60
2018-12-18T07:53:58.922Z,24.30
2018-12-18T07:56:27.166Z,22.73
2018-12-18T07:58:55.291Z,22.27
2018-12-18T08:01:23.449Z,23.67
2018-12-18T08:03:51.576Z,20.47
2018-12-18T08:06:19.690Z,21.15
2018-12-18T08:08:47.926Z,22.50
2018-12-18T08:11:16.042Z,20.88
2018-12-18T08:13:44.212Z,22.27
2018-12-18T08:16:12.384Z,20.72
2018-12-18T08:18:40.564Z,21.52
2018-12-18T08:21:08.694Z,20.25
2018-12-18T08:23:36.840Z,20.40
2018-12-18T08:26:05.033Z,20.08
2018-12-18T08:28:33.199Z,18.98
2018-12-18T08:31:01.408Z,19.13
2018-12-18T08:33:29.541Z,20.65
2018-12-18T08:35:58.336Z,21.43
2018-12-18T08:38:29.107Z,19.83
2018-12-18T08:40:57.570Z,18.23
2018-12-18T08:43:26.104Z,20.87
2018-12-18T08:45:54.686Z,17.67
2018-12-18T08:48:23.810Z,18.80
2018-12-18T08:50:52.252Z,18.80
2018-12-18T08:53:20.784Z,17.33
2018-12-18T08:55:49.247Z,17.03
2018-12-18T08:58:17.714Z,19.17
2018-12-18T09:00:46.209Z,18.40
2018-12-18T09:03:14.902Z,19.07
2018-12-18T09:05:43.563Z,19.40
2018-12-18T09:08:12.114Z,17.73
2018-12-18T09:10:40.652Z,19.37
2018-12-18T09:13:09.135Z,19.13
2018-12-18T09:15:42.863Z,18.27
2018-12-18T09:18:11.298Z,18.87
2018-12-18T09:20:39.728Z,19.30
2018-12-18T09:23:08.224Z,20.10
2018-12-18T09:25:36.671Z,18.67
2018-12-18T09:28:05.174Z,17.77
2018-12-18T09:30:33.648Z,18.87
2018-12-18T09:33:02.067Z,17.77
2018-12-18T09:35:30.568Z,17.00
2018-12-18T09:38:04.385Z,18.07
2018-12-18T09:40:38.326Z,17.10
2018-12-18T09:43:12.099Z,16.03
2018-12-18T09:45:40.572Z,16.70
2018-12-18T09:48:09.008Z,17.63
2018-12-18T09:50:37.194Z,17.60
2018-12-18T09:53:05.501Z,16.03
2018-12-18T09:55:33.772Z,14.77
2018-12-18T09:58:03.976Z,16.70
2018-12-18T10:00:32.105Z,16.53
2018-12-18T10:03:00.244Z,16.50
2018-12-18T10:05:28.415Z,18.10
2018-12-18T10:07:56.533Z,17.57
2018-12-18T10:10:24.676Z,17.83
2018-12-18T10:12:55.270Z,18.30
2018-12-18T10:15:23.905Z,22.33
2018-12-18T10:17:52.032Z,19.67
2018-12-18T10:20:20.324Z,20.60
2018-12-18T10:22:48.462Z,20.10
2018-12-18T10:25:16.659Z,21.13
2018-12-18T10:27:44.893Z,21.63
2018-12-18T10:30:13.061Z,23.33
2018-12-18T10:32:41.181Z,21.60
2018-12-18T10:35:09.357Z,22.00
2018-12-18T10:37:37.463Z,21.73
2018-12-18T10:40:07.002Z,22.40
2018-12-18T10:42:35.151Z,21.07
2018-12-18T10:45:03.403Z,22.43
2018-12-18T10:47:31.564Z,21.60
2018-12-18T10:49:59.715Z,21.93
2018-12-18T10:52:27.806Z,20.37
2018-12-18T10:54:56.089Z,22.73
2018-12-18T10:57:24.196Z,21.90
2018-12-18T10:59:52.384Z,22.30
2018-12-18T11:02:20.615Z,22.53
2018-12-18T11:04:48.828Z,23.63
2018-12-18T11:07:16.996Z,24.10
2018-12-18T11:09:45.224Z,23.20
2018-12-18T11:12:15.379Z,22.40
2018-12-18T11:14:44.201Z,21.07
2018-12-18T11:17:12.386Z,22.10
2018-12-18T11:19:40.509Z,20.77
2018-12-18T11:22:08.712Z,23.23
2018-12-18T11:24:36.836Z,21.47
2018-12-18T11:27:04.996Z,22.53
2018-12-18T11:29:33.171Z,21.13
2018-12-18T11:32:01.406Z,22.30
2018-12-18T11:34:29.565Z,23.07
2018-12-18T11:36:57.730Z,21.63
2018-12-18T11:39:25.936Z,22.13
2018-12-18T11:41:54.134Z,21.27
2018-12-18T11:44:22.284Z,23.10
2018-12-18T11:46:50.563Z,22.13
2018-12-18T11:49:18.741Z,20.67
2018-12-18T11:51:46.955Z,23.07
2018-12-18T11:54:15.557Z,24.13
2018-12-18T11:56:43.730Z,24.57
2018-12-18T11:59:11.866Z,23.17
2018-12-18T12:01:39.985Z,23.80
2018-12-18T12:04:08.086Z,25.17
2018-12-18T12:06:36.268Z,24.43
2018-12-18T12:09:06.352Z,23.37
2018-12-18T12:11:34.541Z,22.77
2018-12-18T12:14:02.685Z,23.97
2018-12-18T12:16:30.831Z,24.10
2018-12-18T12:18:58.991Z,22.23
2018-12-18T12:21:27.196Z,21.90
2018-12-18T12:23:55.316Z,22.87
2018-12-18T12:26:28.970Z,23.73
2018-12-18T12:28:57.252Z,25.13
2018-12-18T12:31:25.492Z,21.83
2018-12-18T12:33:53.842Z,22.97
2018-12-18T12:36:21.987Z,24.53
2018-12-18T12:38:50.122Z,23.93
2018-12-18T12:41:18.288Z,23.70
2018-12-18T12:43:46.437Z,24.10
2018-12-18T12:46:14.521Z,25.80
2018-12-18T12:48:48.036Z,26.77
2018-12-18T12:51:16.175Z,24.97
2018-12-18T12:53:44.295Z,24.90
2018-12-18T12:56:12.565Z,23.10
2018-12-18T12:58:40.675Z,23.40
2018-12-18T13:01:08.874Z,21.60
2018-12-18T13:03:36.969Z,21.47
2018-12-18T13:06:05.094Z,22.70
2018-12-18T13:08:33.274Z,22.70
2018-12-18T13:11:01.416Z,22.43
2018-12-18T13:13:29.531Z,23.30
2018-12-18T13:15:57.760Z,23.47
2018-12-18T13:18:25.900Z,24.03
2018-12-18T13:20:53.959Z,23.87
2018-12-18T13:23:22.134Z,23.97
2018-12-18T13:25:50.232Z,24.87
2018-12-18T13:28:18.369Z,25.37
2018-12-18T13:30:46.521Z,23.87
2018-12-18T13:33:14.660Z,25.53
2018-12-18T13:35:42.845Z,25.77
2018-12-18T13:38:11.121Z,24.27
2018-12-18T13:40:39.276Z,23.37
2018-12-18T13:43:07.377Z,23.17
2018-12-18T13:45:35.558Z,24.50
2018-12-18T13:48:03.719Z,23.93
2018-12-18T13:50:31.839Z,23.97
2018-12-18T13:52:59.961Z,22.43
2018-12-18T13:55:28.245Z,23.30
2018-12-18T13:57:56.397Z,22.77
2018-12-18T14:00:24.558Z,22.97
2018-12-18T14:02:52.696Z,21.57
2018-12-18T14:05:20.942Z,22.30
2018-12-18T14:07:49.026Z,22.20
2018-12-18T14:10:17.148Z,23.07
2018-12-18T14:12:49.564Z,22.27
2018-12-18T14:15:17.799Z,21.37
2018-12-18T14:17:46.027Z,20.07
2018-12-18T14:20:14.162Z,22.00
2018-12-18T14:22:42.265Z,22.27
2018-12-18T14:25:10.376Z,21.07
2018-12-18T14:27:38.481Z,20.07
2018-12-18T14:30:06.742Z,21.77
2018-12-18T14:32:34.944Z,20.80
2018-12-18T14:35:03.120Z,20.87
2018-12-18T14:37:31.255Z,21.93
2018-12-18T14:39:59.387Z,20.77
2018-12-18T14:42:27.666Z,20.50
2018-12-18T14:44:55.788Z,20.50
2018-12-18T14:47:23.967Z,20.40
2018-12-18T14:49:52.171Z,18.40
2018-12-18T14:52:20.271Z,18.67
2018-12-18T14:54:48.426Z,19.13
2018-12-18T14:57:16.565Z,18.67
2018-12-18T14:59:44.858Z,17.53
2018-12-18T15:02:13.008Z,18.10
2018-12-18T15:04:41.238Z,18.40
2018-12-18T15:07:09.412Z,17.53
2018-12-18T15:09:37.613Z,18.77
2018-12-18T15:12:06.744Z,18.60
2018-12-18T15:14:34.929Z,17.63
2018-12-18T15:17:03.224Z,18.67
2018-12-18T15:19:31.451Z,17.42
2018-12-18T15:21:59.564Z,17.73
2018-12-18T15:24:27.655Z,18.57
2018-12-18T15:26:55.771Z,20.40
2018-12-18T15:29:23.932Z,19.27
2018-12-18T15:31:52.093Z,17.87
2018-12-18T15:34:20.181Z,19.43
2018-12-18T15:36:48.307Z,20.17
2018-12-18T15:39:16.428Z,20.87
2018-12-18T15:41:44.583Z,19.80
2018-12-18T15:44:12.697Z,21.07
2018-12-18T15:46:40.798Z,20.67
2018-12-18T15:49:08.875Z,20.50
2018-12-18T15:51:37.032Z,20.90
2018-12-18T15:54:05.243Z,22.03
2018-12-18T15:56:33.999Z,23.20
2018-12-18T15:59:02.163Z,21.80
2018-12-18T16:01:30.336Z,21.37
2018-12-18T16:03:58.540Z,20.77
2018-12-18T16:06:26.675Z,20.03
2018-12-18T16:08:54.840Z,19.90
2018-12-18T16:11:22.936Z,19.83
2018-12-18T16:13:51.163Z,19.60
2018-12-18T16:16:20.455Z,18.10
2018-12-18T16:18:48.560Z,18.63
2018-12-18T16:21:16.765Z,18.02
2018-12-18T16:23:44.987Z,18.27
2018-12-18T16:26:13.189Z,18.73
2018-12-18T16:28:42.393Z,20.60
2018-12-18T16:31:22.519Z,19.53
2018-12-18T16:33:50.688Z,18.43
2018-12-18T16:36:18.796Z,18.63
2018-12-18T16:38:47.010Z,20.63
2018-12-18T16:41:15.136Z,20.37
2018-12-18T16:43:43.248Z,21.27
2018-12-18T16:46:11.367Z,20.93
2018-12-18T16:48:39.492Z,20.97
2018-12-18T16:51:07.578Z,20.83
2018-12-18T16:53:36.550Z,20.92
2018-12-18T16:56:04.688Z,21.20
2018-12-18T16:58:32.872Z,20.33
2018-12-18T17:01:01.030Z,21.50
2018-12-18T17:03:29.138Z,23.67
2018-12-18T17:05:57.330Z,22.10
2018-12-18T17:08:25.441Z,22.00
2018-12-18T17:10:53.552Z,22.77
2018-12-18T17:13:21.693Z,22.83
2018-12-18T17:15:49.802Z,23.83
2018-12-18T17:18:17.983Z,23.33
2018-12-18T17:20:46.117Z,23.65
2018-12-18T17:23:14.254Z,24.23
2018-12-18T17:25:42.362Z,24.50
2018-12-18T17:28:10.582Z,22.95
2018-12-18T17:30:38.687Z,23.35
2018-12-18T17:33:06.850Z,22.27
2018-12-18T17:35:35.039Z,24.10
2018-12-18T17:38:03.236Z,21.97
2018-12-18T17:40:32.900Z,23.40
2018-12-18T17:43:01.102Z,21.37
2018-12-18T17:45:37.105Z,21.97
2018-12-18T17:48:05.536Z,22.05
2018-12-18T17:50:33.697Z,21.10
2018-12-18T17:53:01.835Z,21.83
2018-12-18T17:55:30.115Z,20.83
2018-12-18T17:57:58.233Z,21.43
2018-12-18T18:00:26.498Z,21.20
2018-12-18T18:02:54.692Z,20.25
2018-12-18T18:05:22.870Z,19.87
2018-12-18T18:07:52.088Z,20.43
2018-12-18T18:10:20.225Z,20.00
2018-12-18T18:12:48.419Z,19.03
2018-12-18T18:15:16.725Z,18.60
2018-12-18T18:17:44.934Z,19.03
2018-12-18T18:20:13.454Z,18.87
2018-12-18T18:22:41.604Z,17.70
2018-12-18T18:25:09.819Z,19.83
2018-12-18T18:27:39.581Z,18.13
2018-12-18T18:30:18.286Z,18.37
2018-12-18T18:32:46.992Z,18.27
2018-12-18T18:35:16.536Z,18.92
2018-12-18T18:37:49.627Z,18.40
2018-12-18T18:43:08.453Z,16.73
2018-12-18T18:45:36.739Z,17.70
2018-12-18T18:48:05.023Z,17.50
2018-12-18T18:50:33.261Z,17.30
2018-12-18T18:53:01.509Z,17.87
2018-12-18T18:55:29.800Z,18.15
2018-12-18T18:57:58.027Z,18.12
2018-12-18T19:00:26.170Z,15.60
2018-12-18T19:02:54.320Z,17.40
2018-12-18T19:05:22.516Z,16.70
2018-12-18T19:07:56.222Z,18.17
2018-12-18T19:10:20.876Z,16.20
2018-12-18T19:12:51.191Z,17.43
2018-12-18T19:15:19.296Z,17.77
2018-12-18T19:17:47.530Z,17.02
2018-12-18T19:20:15.647Z,17.02
2018-12-18T19:22:43.779Z,17.33
2018-12-18T19:25:12.612Z,17.60
2018-12-18T19:27:41.948Z,16.70
2018-12-18T19:30:10.192Z,19.20
2018-12-18T19:32:38.276Z,18.77
2018-12-18T19:35:06.578Z,17.17
2018-12-18T19:37:34.696Z,18.62
2018-12-18T19:40:02.964Z,18.67
2018-12-18T19:42:31.117Z,17.87
2018-12-18T19:44:59.277Z,17.60
2018-12-18T19:47:27.409Z,17.70
2018-12-18T19:49:55.660Z,16.70
2018-12-18T19:52:23.777Z,16.87
2018-12-18T19:54:51.955Z,16.67
2018-12-18T19:57:20.092Z,17.23
2018-12-18T19:59:48.237Z,14.67
2018-12-18T20:02:16.369Z,16.33
2018-12-18T20:04:44.568Z,16.73
2018-12-18T20:07:12.727Z,16.70
2018-12-18T20:09:40.835Z,15.78
2018-12-18T20:12:09.017Z,16.13
2018-12-18T20:14:38.473Z,16.63
2018-12-18T20:17:06.814Z,16.67
2018-12-18T20:19:36.268Z,16.27
2018-12-18T20:22:04.493Z,15.57
2018-12-18T20:24:32.727Z,16.27
2018-12-18T20:27:00.893Z,16.43
2018-12-18T20:29:29.611Z,16.80
2018-12-18T20:31:57.904Z,16.67
2018-12-18T20:34:26.081Z,15.75
2018-12-18T20:36:54.271Z,16.37
2018-12-18T20:39:22.468Z,16.85
2018-12-18T20:41:50.686Z,17.35
2018-12-18T20:44:20.927Z,17.42
2018-12-18T20:46:49.100Z,16.65
2018-12-18T20:49:17.296Z,17.42
2018-12-18T20:51:45.584Z,16.62
2018-12-18T20:54:13.771Z,18.10
2018-12-18T20:56:41.917Z,17.60
2018-12-18T20:59:10.184Z,17.45
2018-12-18T21:04:25.534Z,17.40
2018-12-18T21:06:54.513Z,17.05
2018-12-18T21:09:22.782Z,17.95
2018-12-18T21:11:52.451Z,16.65
2018-12-18T21:25:55.043Z,16.82
2018-12-18T21:28:23.395Z,16.93
2018-12-18T21:30:51.954Z,17.15
2018-12-18T21:33:20.933Z,17.60
2018-12-18T21:35:50.004Z,16.80
2018-12-18T21:38:19.275Z,17.70
2018-12-18T21:40:48.671Z,18.10
2018-12-18T21:46:09.380Z,18.12
2018-12-18T21:48:38.679Z,17.50
2018-12-18T21:51:21.762Z,17.67
2018-12-18T21:53:58.618Z,17.17
2018-12-18T21:56:31.186Z,17.57
2018-12-18T22:23:40.066Z,17.62
2018-12-18T23:05:42.012Z,18.15
2018-12-18T23:08:10.178Z,17.98
2018-12-18T23:10:38.297Z,18.25
2018-12-18T23:13:06.437Z,17.92
2018-12-18T23:15:34.570Z,17.55
2018-12-18T23:18:02.709Z,18.90
2018-12-18T23:20:30.931Z,18.55
2018-12-18T23:22:59.089Z,19.02
2018-12-18T23:25:27.247Z,18.23
2018-12-18T23:27:55.371Z,18.27
2018-12-18T23:30:23.552Z,18.43
2018-12-18T23:32:51.687Z,17.85
2018-12-18T23:35:19.868Z,16.85
2018-12-18T23:37:47.966Z,19.70
2018-12-18T23:40:16.085Z,19.60
2018-12-18T23:42:44.223Z,19.37
2018-12-18T23:45:12.365Z,17.90
2018-12-18T23:47:40.579Z,17.12
2018-12-18T23:50:08.701Z,19.20
2018-12-18T23:52:36.827Z,17.77
2018-12-18T23:55:05.006Z,17.50
